Time;durP1;ratioP1;P1;durP2;ratioP2;P2;SDS_P1;SDS_P2;PMS_P1;PMS_P2;Temp;Humidity;BMP_temperature;BMP_pressure;BME280_temperature;BME280_humidity;BME280_pressure;Samples;Min_cycle;Max_cycle;Signal;HPM_P1;HPM_P2
2023/06/08 00:00:41;;;;;;;17.90;7.00;;;;;;;17.10;67.85;100383.47;4248071;28;22077;-69
2023/06/08 00:03:08;;;;;;;15.50;6.87;;;;;;;17.19;67.16;100375.97;4246222;28;23420;-70
2023/06/08 00:05:43;;;;;;;9.60;6.30;;;;;;;17.15;67.21;100372.78;4250748;28;20234;-71
2023/06/08 00:08:11;;;;;;;15.57;6.90;;;;;;;16.98;68.07;100380.38;4250981;28;20515;-69
2023/06/08 00:10:41;;;;;;;19.00;6.87;;;;;;;16.82;68.82;100391.47;4228488;28;25348;-70
2023/06/08 00:13:07;;;;;;;17.10;7.43;;;;;;;16.80;68.72;100397.13;4238301;28;20414;-70
2023/06/08 00:15:34;;;;;;;11.80;6.90;;;;;;;16.72;68.85;100389.91;4253515;28;20764;-68
2023/06/08 00:18:01;;;;;;;16.83;7.00;;;;;;;16.73;68.75;100402.50;4243246;28;22109;-69
2023/06/08 00:20:28;;;;;;;14.57;6.80;;;;;;;16.77;68.19;100400.25;4231758;28;20275;-67
2023/06/08 00:22:56;;;;;;;12.53;7.03;;;;;;;16.77;68.00;100405.72;4243030;28;20240;-70
2023/06/08 00:25:23;;;;;;;13.07;7.50;;;;;;;16.75;68.13;100397.69;4244007;28;20230;-70
2023/06/08 00:27:49;;;;;;;27.40;7.07;;;;;;;16.80;70.48;100400.72;4248973;28;20232;-68
2023/06/08 00:30:16;;;;;;;11.10;7.23;;;;;;;16.70;69.39;100407.50;4234858;28;21154;-70
2023/06/08 00:32:42;;;;;;;16.00;7.40;;;;;;;16.69;69.46;100405.84;4243799;28;20234;-69
2023/06/08 00:35:09;;;;;;;13.90;6.80;;;;;;;16.68;69.84;100404.97;4242122;28;20241;-69
2023/06/08 00:37:36;;;;;;;11.17;7.13;;;;;;;16.77;71.17;100401.09;4240489;28;22409;-69
2023/06/08 00:40:06;;;;;;;12.77;6.83;;;;;;;16.71;70.89;100406.47;4229400;28;22945;-69
2023/06/08 00:42:33;;;;;;;12.33;7.10;;;;;;;16.66;71.25;100395.25;4240662;28;20244;-70
2023/06/08 00:45:00;;;;;;;16.63;8.33;;;;;;;16.57;70.76;100399.97;4245161;28;20236;-68
2023/06/08 00:47:26;;;;;;;17.77;7.53;;;;;;;16.53;70.74;100393.19;4239814;28;20227;-68
2023/06/08 00:49:53;;;;;;;16.47;8.30;;;;;;;16.39;71.05;100390.25;4231798;28;20430;-68
2023/06/08 00:52:21;;;;;;;18.37;8.00;;;;;;;16.27;72.03;100389.88;4239550;28;20235;-73
2023/06/08 00:54:48;;;;;;;14.20;8.00;;;;;;;16.35;72.15;100396.28;4241813;28;20241;-67
2023/06/08 00:57:18;;;;;;;17.77;7.77;;;;;;;16.16;72.29;100391.16;4240326;28;20389;-68
2023/06/08 00:59:49;;;;;;;16.27;7.87;;;;;;;16.16;72.48;100388.44;4226338;28;22439;-68
2023/06/08 01:02:17;;;;;;;18.10;8.73;;;;;;;16.00;72.65;100389.44;4238201;28;25110;-71
2023/06/08 01:04:43;;;;;;;14.73;7.67;;;;;;;16.09;73.67;100387.47;4241586;28;22762;-69
2023/06/08 01:07:19;;;;;;;14.47;8.00;;;;;;;15.98;72.74;100386.03;4253070;28;22068;-71
2023/06/08 01:09:52;;;;;;;14.33;7.87;;;;;;;15.90;72.98;100374.34;4224496;28;20341;-68
2023/06/08 01:12:35;;;;;;;18.07;8.00;;;;;;;15.97;72.96;100381.59;4230514;28;20240;-68
2023/06/08 01:15:07;;;;;;;15.47;7.33;;;;;;;15.99;72.74;100381.41;4241975;28;21576;-68
2023/06/08 01:17:52;;;;;;;12.43;7.70;;;;;;;16.03;72.65;100381.91;4235279;28;21125;-70
2023/06/08 01:20:34;;;;;;;14.60;7.63;;;;;;;16.05;72.49;100386.13;4229475;28;20343;-67
2023/06/08 01:23:20;;;;;;;15.33;7.67;;;;;;;15.99;73.43;100381.41;4237712;28;21775;-67
2023/06/08 01:25:48;;;;;;;15.57;7.03;;;;;;;16.02;72.50;100386.53;4251350;28;20234;-67
2023/06/08 01:28:15;;;;;;;16.90;7.63;;;;;;;15.98;72.52;100383.31;4247670;28;20244;-71
2023/06/08 01:30:46;;;;;;;13.87;7.20;;;;;;;16.03;72.76;100387.34;4226853;28;20253;-68
2023/06/08 01:33:16;;;;;;;13.23;7.50;;;;;;;16.00;72.79;100389.44;4254856;28;20293;-69
2023/06/08 01:35:47;;;;;;;13.50;7.77;;;;;;;15.84;72.97;100387.69;4240592;28;20236;-69
2023/06/08 01:38:43;;;;;;;12.47;6.83;;;;;;;15.81;73.90;100396.22;4243445;28;20314;-71
2023/06/08 01:41:16;;;;;;;16.90;7.70;;;;;;;15.62;74.02;100396.69;4242682;28;22029;-71
2023/06/08 01:43:44;;;;;;;14.37;8.00;;;;;;;15.59;73.93;100386.16;4257377;28;21614;-69
2023/06/08 01:46:12;;;;;;;15.57;7.60;;;;;;;15.47;74.09;100397.47;4246830;28;21163;-68
2023/06/08 01:48:40;;;;;;;11.37;7.37;;;;;;;15.49;74.06;100392.69;4244521;28;23015;-69
2023/06/08 01:51:07;;;;;;;13.37;6.90;;;;;;;15.61;73.67;100395.00;4243012;28;20399;-69
2023/06/08 01:53:34;;;;;;;20.50;7.83;;;;;;;15.57;73.85;100390.94;4248496;28;20861;-70
2023/06/08 01:56:01;;;;;;;12.17;7.67;;;;;;;15.47;74.24;100397.47;4241929;28;20235;-69
2023/06/08 01:58:27;;;;;;;15.07;7.67;;;;;;;15.46;74.96;100394.94;4238495;28;20241;-71
2023/06/08 02:00:55;;;;;;;14.87;8.00;;;;;;;15.34;74.88;100394.50;4243456;28;20223;-70
2023/06/08 02:03:21;;;;;;;12.60;7.70;;;;;;;15.39;74.73;100399.44;4259332;28;21286;-70
2023/06/08 02:05:48;;;;;;;12.43;7.50;;;;;;;15.32;74.90;100389.25;4240365;28;20570;-71
2023/06/08 02:08:15;;;;;;;13.37;7.53;;;;;;;15.30;74.92;100391.28;4251201;28;21541;-69
2023/06/08 02:10:41;;;;;;;15.30;8.80;;;;;;;15.23;75.31;100392.16;4239804;28;20630;-69
2023/06/08 02:13:08;;;;;;;14.20;8.37;;;;;;;15.19;75.46;100395.28;4253758;28;20787;-69
2023/06/08 02:15:35;;;;;;;18.00;9.20;;;;;;;15.20;75.55;100391.53;4235712;28;20482;-69
2023/06/08 02:18:01;;;;;;;14.13;7.90;;;;;;;15.15;75.88;100393.91;4251228;28;20233;-70
2023/06/08 02:20:30;;;;;;;20.50;8.13;;;;;;;15.16;76.02;100398.34;4247526;28;21958;-67
2023/06/08 02:22:57;;;;;;;14.27;8.13;;;;;;;15.22;76.20;100396.78;4249667;28;22232;-69
2023/06/08 02:25:23;;;;;;;21.40;8.90;;;;;;;15.19;75.83;100391.69;4224891;28;20285;-65
2023/06/08 02:27:50;;;;;;;16.03;8.60;;;;;;;15.18;75.62;100396.28;4239289;28;20258;-68
2023/06/08 02:30:17;;;;;;;16.27;8.70;;;;;;;15.11;76.24;100395.31;4251440;28;21087;-69
2023/06/08 02:32:45;;;;;;;20.77;9.97;;;;;;;15.07;76.33;100398.56;4250246;28;20233;-67
2023/06/08 02:35:12;;;;;;;15.50;8.43;;;;;;;15.04;76.52;100391.59;4237211;28;20231;-69
2023/06/08 02:37:39;;;;;;;14.20;9.37;;;;;;;15.02;76.72;100404.56;4251849;28;20230;-68
2023/06/08 02:40:08;;;;;;;19.17;8.83;;;;;;;15.03;76.65;100398.06;4243566;28;20243;-67
2023/06/08 02:42:36;;;;;;;16.33;9.30;;;;;;;14.96;76.80;100395.19;4259264;28;21728;-68
2023/06/08 02:45:03;;;;;;;17.30;8.80;;;;;;;14.94;77.22;100393.69;4247679;28;20272;-70
2023/06/08 02:47:30;;;;;;;16.43;9.30;;;;;;;14.87;77.26;100388.94;4244577;28;20496;-69
2023/06/08 02:49:57;;;;;;;15.80;10.20;;;;;;;14.88;77.24;100396.09;4257665;28;20254;-68
2023/06/08 02:52:24;;;;;;;18.37;10.27;;;;;;;14.86;77.48;100395.41;4264852;28;21684;-68
2023/06/08 02:54:51;;;;;;;24.93;9.83;;;;;;;14.84;77.42;100392.00;4246852;28;20241;-72
2023/06/08 02:57:18;;;;;;;18.13;9.90;;;;;;;14.93;77.47;100391.97;4254145;28;20590;-71
2023/06/08 02:59:45;;;;;;;17.83;9.20;;;;;;;14.97;76.78;100394.19;4255204;28;22818;-67
2023/06/08 03:02:11;;;;;;;18.73;9.03;;;;;;;14.87;77.19;100390.84;4253728;28;21241;-70
2023/06/08 03:04:38;;;;;;;15.80;9.10;;;;;;;14.88;76.96;100393.38;4266955;28;20249;-69
2023/06/08 03:07:09;;;;;;;18.67;9.57;;;;;;;14.89;76.97;100402.38;4240797;28;20961;-69
2023/06/08 03:09:36;;;;;;;15.50;9.47;;;;;;;14.92;76.99;100401.22;4267683;28;20231;-70
2023/06/08 03:12:03;;;;;;;19.13;9.43;;;;;;;14.94;77.03;100404.59;4245067;28;20230;-72
2023/06/08 03:14:30;;;;;;;15.30;8.97;;;;;;;14.95;77.29;100409.88;4224950;28;21991;-69
2023/06/08 03:17:02;;;;;;;13.57;9.33;;;;;;;14.99;76.51;100404.94;4243136;28;20386;-69
2023/06/08 03:19:30;;;;;;;16.93;9.13;;;;;;;15.06;76.60;100397.72;4253698;28;20327;-66
2023/06/08 03:21:59;;;;;;;15.17;8.90;;;;;;;15.07;76.40;100407.59;4255101;28;20710;-68
2023/06/08 03:24:31;;;;;;;16.10;8.83;;;;;;;15.07;76.37;100410.31;4217167;28;20913;-69
2023/06/08 03:27:00;;;;;;;14.47;8.10;;;;;;;15.27;75.43;100404.44;4244625;28;20285;-69
2023/06/08 03:29:27;;;;;;;19.23;8.33;;;;;;;15.32;75.95;100415.66;4235537;28;20231;-70
2023/06/08 03:31:54;;;;;;;13.90;8.20;;;;;;;15.38;75.37;100412.19;4241814;28;21103;-70
2023/06/08 03:34:25;;;;;;;18.13;8.60;;;;;;;15.37;74.95;100418.69;4227628;28;20483;-68
2023/06/08 03:36:53;;;;;;;17.03;8.17;;;;;;;15.49;74.21;100408.22;4241971;28;20230;-67
2023/06/08 03:39:19;;;;;;;11.87;7.83;;;;;;;15.51;74.14;100411.59;4244012;28;20235;-69
2023/06/08 03:41:46;;;;;;;16.87;8.40;;;;;;;15.33;74.81;100407.28;4235961;28;21208;-68
2023/06/08 03:44:13;;;;;;;17.17;8.40;;;;;;;15.45;74.58;100412.34;4238751;28;20296;-71
2023/06/08 03:46:39;;;;;;;17.50;7.57;;;;;;;15.51;73.80;100407.03;4225201;28;20298;-69
2023/06/08 03:49:06;;;;;;;13.23;7.37;;;;;;;15.60;72.92;100412.41;4257606;28;20300;-69
2023/06/08 03:51:32;;;;;;;11.83;7.43;;;;;;;15.41;73.58;100420.03;4267163;28;20237;-69
2023/06/08 03:53:59;;;;;;;10.00;7.13;;;;;;;15.46;73.62;100422.22;4246065;28;20674;-71
2023/06/08 03:56:26;;;;;;;14.07;7.10;;;;;;;15.63;72.59;100418.38;4222823;28;20245;-69
2023/06/08 03:58:53;;;;;;;13.40;7.00;;;;;;;15.72;72.16;100418.28;4236665;28;20239;-68
2023/06/08 04:01:22;;;;;;;10.80;6.73;;;;;;;15.81;72.06;100418.06;4246187;28;20234;-70
2023/06/08 04:03:49;;;;;;;14.33;7.00;;;;;;;15.90;71.21;100418.03;4234799;28;20241;-69
2023/06/08 04:06:16;;;;;;;15.23;6.50;;;;;;;15.96;71.24;100417.28;4231162;28;20241;-69
2023/06/08 04:08:44;;;;;;;13.47;7.47;;;;;;;15.87;71.60;100408.31;4253256;28;20242;-69
2023/06/08 04:11:12;;;;;;;12.97;6.90;;;;;;;15.87;71.65;100419.22;4231835;28;20230;-69
2023/06/08 04:13:39;;;;;;;10.50;6.80;;;;;;;15.99;71.13;100419.63;4243586;28;21720;-69
2023/06/08 04:16:08;;;;;;;15.43;7.23;;;;;;;15.92;71.57;100411.34;4229622;28;22135;-69
2023/06/08 04:18:36;;;;;;;9.87;6.43;;;;;;;16.15;70.93;100414.03;4247871;28;20333;-67
2023/06/08 04:21:05;;;;;;;15.53;6.50;;;;;;;16.08;70.34;100418.53;4238896;28;20370;-71
2023/06/08 04:23:35;;;;;;;12.63;6.93;;;;;;;16.21;69.93;100426.13;4241679;28;20230;-69
2023/06/08 04:26:08;;;;;;;11.03;6.53;;;;;;;16.40;69.40;100424.75;4241798;28;20270;-69
2023/06/08 04:28:35;;;;;;;10.93;6.30;;;;;;;16.58;68.69;100420.78;4243183;28;20232;-68
2023/06/08 04:31:04;;;;;;;15.43;6.30;;;;;;;16.78;67.67;100427.41;4248505;28;20227;-70
2023/06/08 04:33:31;;;;;;;11.93;6.63;;;;;;;16.80;67.93;100422.56;4244641;28;20230;-71
2023/06/08 04:35:58;;;;;;;13.73;7.30;;;;;;;17.00;67.59;100437.59;4242949;28;20880;-71
2023/06/08 04:38:25;;;;;;;15.73;7.53;;;;;;;17.03;67.39;100423.56;4226745;28;26208;-71
2023/06/08 04:40:53;;;;;;;15.57;6.50;;;;;;;17.21;67.18;100423.16;4255373;28;20240;-71
2023/06/08 04:43:25;;;;;;;13.37;6.60;;;;;;;16.84;67.55;100427.69;4234460;28;20249;-69
2023/06/08 04:45:59;;;;;;;8.80;6.23;;;;;;;17.02;67.26;100427.31;4249838;28;20598;-72
2023/06/08 04:48:27;;;;;;;9.57;5.60;;;;;;;17.31;68.16;100418.22;4242463;28;20233;-69
2023/06/08 04:51:02;;;;;;;11.83;6.53;;;;;;;17.24;66.16;100429.09;4248880;28;20234;-72
2023/06/08 04:53:30;;;;;;;8.93;5.20;;;;;;;17.05;66.02;100427.78;4248773;28;21213;-68
2023/06/08 04:55:57;;;;;;;11.03;5.33;;;;;;;17.08;65.70;100437.50;4227797;28;20660;-73
2023/06/08 04:58:25;;;;;;;10.10;5.70;;;;;;;17.10;66.13;100430.81;4235825;28;25921;-70
2023/06/08 05:00:52;;;;;;;10.73;4.70;;;;;;;17.29;64.89;100422.22;4228873;28;20290;-69
2023/06/08 05:03:19;;;;;;;7.80;5.03;;;;;;;17.40;65.15;100429.91;4231515;28;21726;-72
2023/06/08 05:05:47;;;;;;;11.63;4.90;;;;;;;17.41;65.16;100423.38;4239166;28;20301;-71
2023/06/08 05:08:14;;;;;;;9.50;5.80;;;;;;;17.67;63.80;100431.03;4239728;28;20247;-67
2023/06/08 05:10:40;;;;;;;10.83;6.17;;;;;;;17.78;63.87;100434.31;4258146;28;21844;-66
2023/06/08 05:13:07;;;;;;;13.30;6.43;;;;;;;17.76;63.84;100436.41;4246287;28;20295;-67
2023/06/08 05:15:33;;;;;;;9.97;5.73;;;;;;;17.87;63.33;100438.59;4257298;28;21443;-65
2023/06/08 05:18:00;;;;;;;11.20;5.37;;;;;;;18.14;62.14;100436.16;4253119;28;21609;-64
2023/06/08 05:20:28;;;;;;;10.63;5.27;;;;;;;18.11;62.51;100431.06;4242233;28;22336;-66
2023/06/08 05:22:55;;;;;;;11.03;5.60;;;;;;;18.74;61.13;100435.75;4242182;28;20443;-67
2023/06/08 05:25:22;;;;;;;13.33;5.13;;;;;;;19.12;59.91;100430.72;4250229;28;20285;-65
2023/06/08 05:27:48;;;;;;;10.47;5.33;;;;;;;19.22;58.93;100424.00;4250372;28;20325;-65
2023/06/08 05:30:15;;;;;;;9.30;5.07;;;;;;;19.63;57.79;100426.66;4259378;28;25203;-64
2023/06/08 05:32:42;;;;;;;8.90;5.53;;;;;;;20.38;55.91;100430.34;4280872;28;20301;-66
2023/06/08 05:35:09;;;;;;;10.57;5.70;;;;;;;20.34;55.01;100432.69;4243815;28;20240;-65
2023/06/08 05:37:35;;;;;;;10.47;5.37;;;;;;;20.40;55.12;100434.56;4257915;28;20306;-66
2023/06/08 05:40:02;;;;;;;9.47;5.47;;;;;;;20.98;53.71;100429.41;4241601;28;20661;-65
2023/06/08 05:42:29;;;;;;;10.83;5.93;;;;;;;20.88;53.29;100425.22;4254254;28;20252;-66
2023/06/08 05:44:56;;;;;;;10.40;5.47;;;;;;;21.32;52.91;100430.16;4244600;28;21771;-64
2023/06/08 05:47:23;;;;;;;12.50;5.57;;;;;;;22.14;50.57;100423.94;4235776;28;21643;-67
2023/06/08 05:49:54;;;;;;;10.90;5.10;;;;;;;22.38;50.41;100418.63;4258448;28;22251;-67
2023/06/08 05:52:21;;;;;;;11.30;5.43;;;;;;;22.69;49.04;100427.91;4241683;28;20238;-67
2023/06/08 05:54:48;;;;;;;11.90;5.47;;;;;;;23.41;48.27;100419.88;4245706;28;20238;-68
2023/06/08 05:57:15;;;;;;;9.37;5.50;;;;;;;23.55;46.57;100431.59;4247058;28;20234;-67
2023/06/08 05:59:41;;;;;;;7.97;5.00;;;;;;;23.85;46.21;100425.22;4256981;28;20231;-71
2023/06/08 06:02:08;;;;;;;9.65;5.15;;;;;;;24.72;44.60;100431.22;4252546;28;20235;-65
2023/06/08 06:04:36;;;;;;;9.03;5.10;;;;;;;25.65;42.82;100435.09;4217737;28;20243;-68
2023/06/08 06:07:06;;;;;;;12.93;5.60;;;;;;;26.17;41.17;100426.63;4239358;28;20323;-63
2023/06/08 06:09:33;;;;;;;10.90;5.10;;;;;;;26.45;40.96;100422.09;4268230;28;20221;-67
2023/06/08 06:11:59;;;;;;;8.10;4.78;;;;;;;26.85;39.15;100420.22;4253496;28;21506;-68
2023/06/08 06:14:27;;;;;;;7.75;4.32;;;;;;;25.46;41.60;100422.28;4239034;28;20246;-68
2023/06/08 06:16:54;;;;;;;6.72;4.50;;;;;;;25.02;42.77;100421.91;4251475;28;21899;-65
2023/06/08 06:19:36;;;;;;;7.85;4.30;;;;;;;25.66;41.72;100421.03;4244021;28;20967;-67
2023/06/08 06:22:08;;;;;;;9.13;4.18;;;;;;;25.16;42.60;100426.09;4244167;28;20609;-66
2023/06/08 06:24:35;;;;;;;6.63;4.43;;;;;;;26.08;40.86;100423.44;4250497;28;20238;-68
2023/06/08 06:27:02;;;;;;;11.50;7.00;;;;;;;26.37;39.12;100428.91;4240830;28;20223;-66
2023/06/08 06:29:29;;;;;;;6.18;3.47;;;;;;;25.86;40.51;100422.47;4241562;28;20925;-66
2023/06/08 06:31:56;;;;;;;6.37;3.07;;;;;;;25.79;40.71;100420.72;4221786;28;20289;-65
2023/06/08 06:34:22;;;;;;;5.23;3.13;;;;;;;26.39;39.33;100414.81;4257217;28;20345;-67
2023/06/08 06:36:50;;;;;;;6.03;2.92;;;;;;;26.64;38.97;100413.50;4247686;28;20296;-66
2023/06/08 06:39:17;;;;;;;4.40;3.53;;;;;;;27.11;37.77;100413.06;4232647;28;20281;-66
2023/06/08 06:41:44;;;;;;;5.90;3.00;;;;;;;27.21;38.21;100417.88;4235728;28;23831;-69
2023/06/08 06:44:10;;;;;;;7.93;2.95;;;;;;;28.39;36.04;100415.47;4254262;28;22044;-68
2023/06/08 06:46:37;;;;;;;6.03;3.63;;;;;;;28.49;35.47;100411.09;4249973;28;20292;-71
2023/06/08 06:49:04;;;;;;;4.88;3.22;;;;;;;29.39;33.71;100413.81;4228962;28;23508;-70
2023/06/08 06:51:31;;;;;;;5.43;3.05;;;;;;;29.70;33.49;100413.03;4238473;28;20376;-65
2023/06/08 06:53:57;;;;;;;6.35;3.40;;;;;;;28.30;35.92;100417.06;4252713;28;23013;-67
2023/06/08 06:56:24;;;;;;;5.95;3.55;;;;;;;28.01;36.02;100416.53;4258468;28;20230;-67
2023/06/08 06:58:52;;;;;;;5.95;3.05;;;;;;;28.03;36.03;100415.16;4249607;28;20231;-66
2023/06/08 07:01:19;;;;;;;5.63;3.03;;;;;;;28.62;34.91;100421.75;4249957;28;20238;-65
2023/06/08 07:03:46;;;;;;;5.32;3.00;;;;;;;29.29;34.21;100422.09;4233351;28;20233;-67
2023/06/08 07:06:13;;;;;;;6.82;3.00;;;;;;;28.18;34.40;100420.03;4248568;28;20358;-72
2023/06/08 07:08:41;;;;;;;4.25;3.00;;;;;;;27.46;35.89;100413.78;4255072;28;21546;-67
2023/06/08 07:11:08;;;;;;;5.93;2.95;;;;;;;27.83;35.31;100415.81;4238972;28;20228;-69
2023/06/08 07:13:35;;;;;;;4.97;2.67;;;;;;;27.80;35.45;100419.09;4231465;28;21171;-63
2023/06/08 07:16:03;;;;;;;5.32;3.05;;;;;;;27.92;35.47;100424.50;4244258;28;20667;-64
2023/06/08 07:18:30;;;;;;;4.57;2.83;;;;;;;29.47;33.63;100418.00;4257394;28;20235;-66
2023/06/08 07:20:57;;;;;;;9.18;2.78;;;;;;;28.23;34.74;100416.47;4230643;28;20243;-65
2023/06/08 07:23:24;;;;;;;6.63;3.08;;;;;;;27.71;35.89;100412.38;4248551;28;20298;-66
2023/06/08 07:26:11;;;;;;;5.10;3.03;;;;;;;27.34;36.74;100419.44;4246090;28;20240;-69
2023/06/08 07:28:59;;;;;;;9.27;4.50;;;;;;;27.15;37.14;100408.63;4238916;28;20612;-70
2023/06/08 07:31:29;;;;;;;6.05;2.70;;;;;;;27.04;36.94;100413.22;4235241;28;20255;-71
2023/06/08 07:33:57;;;;;;;7.20;3.30;;;;;;;26.93;37.72;100417.00;4245944;28;20231;-67
2023/06/08 07:36:24;;;;;;;4.53;2.92;;;;;;;27.32;36.76;100404.94;4228210;28;20242;-66
2023/06/08 07:38:51;;;;;;;5.05;2.80;;;;;;;26.79;37.21;100405.41;4246851;28;20720;-69
2023/06/08 07:41:18;;;;;;;5.97;2.72;;;;;;;26.92;37.48;100408.91;4237002;28;21088;-68
2023/06/08 07:43:45;;;;;;;8.00;3.20;;;;;;;27.20;37.69;100405.94;4233202;28;20229;-66
2023/06/08 07:46:12;;;;;;;8.13;3.10;;;;;;;26.73;37.29;100401.72;4252803;28;20275;-67
2023/06/08 07:48:39;;;;;;;5.13;2.70;;;;;;;27.10;37.30;100393.88;4257682;28;20235;-66
2023/06/08 07:51:06;;;;;;;5.00;2.97;;;;;;;26.65;36.90;100402.16;4251343;28;20231;-66
2023/06/08 07:53:37;;;;;;;5.60;3.10;;;;;;;25.93;38.79;100398.19;4247472;28;20421;-67
2023/06/08 07:56:04;;;;;;;9.07;2.97;;;;;;;26.04;38.54;100407.53;4274884;28;22902;-67
2023/06/08 07:58:31;;;;;;;8.77;2.93;;;;;;;26.49;37.95;100394.69;4244250;28;22037;-66
2023/06/08 08:00:58;;;;;;;6.83;3.20;;;;;;;25.43;39.37;100408.09;4246368;28;20238;-66
2023/06/08 08:03:25;;;;;;;6.32;3.03;;;;;;;25.54;40.18;100411.91;4259900;28;20234;-67
2023/06/08 08:05:52;;;;;;;5.30;2.65;;;;;;;25.07;39.51;100405.44;4260780;28;21097;-66
2023/06/08 08:08:19;;;;;;;5.60;2.90;;;;;;;24.71;41.82;100404.63;4256199;28;20267;-67
2023/06/08 08:10:46;;;;;;;6.17;3.17;;;;;;;24.75;42.70;100410.53;4248662;28;20282;-67
2023/06/08 08:13:13;;;;;;;8.63;3.22;;;;;;;24.39;42.57;100409.66;4265777;28;20927;-68
2023/06/08 08:15:40;;;;;;;4.53;2.53;;;;;;;23.42;43.92;100410.50;4255763;28;20231;-66
2023/06/08 08:18:07;;;;;;;6.10;3.00;;;;;;;23.81;43.12;100401.88;4245781;28;20239;-66
2023/06/08 08:20:34;;;;;;;7.60;3.28;;;;;;;23.49;44.29;100404.88;4236638;28;20360;-67
2023/06/08 08:23:01;;;;;;;8.45;3.03;;;;;;;23.84;43.49;100406.94;4254736;28;20231;-65
2023/06/08 08:25:27;;;;;;;5.17;3.23;;;;;;;24.53;41.91;100397.28;4260006;28;21573;-65
2023/06/08 08:27:54;;;;;;;8.00;3.37;;;;;;;24.30;41.68;100403.66;4242595;28;21390;-67
2023/06/08 08:30:21;;;;;;;5.70;2.90;;;;;;;24.07;42.45;100388.72;4259265;28;20230;-68
2023/06/08 08:32:48;;;;;;;6.57;2.80;;;;;;;23.88;42.95;100394.31;4258118;28;20229;-69
2023/06/08 08:35:15;;;;;;;10.43;3.08;;;;;;;24.20;43.15;100391.25;4238420;28;20324;-67
2023/06/08 08:37:42;;;;;;;4.40;2.97;;;;;;;24.91;41.70;100395.94;4243562;28;20241;-66
2023/06/08 08:40:09;;;;;;;7.43;3.40;;;;;;;24.34;42.24;100402.94;4233442;28;20523;-67
2023/06/08 08:42:42;;;;;;;7.10;3.53;;;;;;;24.50;42.24;100395.84;4273546;28;20233;-66
2023/06/08 08:45:13;;;;;;;5.63;2.90;;;;;;;24.15;42.15;100390.28;4248986;28;20239;-69
2023/06/08 08:47:41;;;;;;;6.10;3.30;;;;;;;24.37;41.94;100391.38;4243523;28;21756;-68
2023/06/08 08:50:16;;;;;;;7.55;2.90;;;;;;;24.68;41.24;100392.13;4267297;28;20238;-66
2023/06/08 08:52:45;;;;;;;8.30;3.00;;;;;;;25.07;41.19;100393.50;4252483;28;20239;-69
2023/06/08 08:55:11;;;;;;;12.73;3.23;;;;;;;25.03;40.10;100384.84;4252837;28;20299;-66
2023/06/08 08:57:59;;;;;;;8.67;3.40;;;;;;;25.45;39.37;100390.13;4265917;28;20452;-65
2023/06/08 09:00:26;;;;;;;5.33;2.63;;;;;;;25.44;39.73;100384.84;4243528;28;20250;-69
2023/06/08 09:02:52;;;;;;;7.97;3.10;;;;;;;25.32;39.45;100390.41;4250858;28;20283;-66
2023/06/08 09:05:19;;;;;;;5.47;3.00;;;;;;;25.36;39.76;100385.19;4251875;28;20279;-68
2023/06/08 09:07:46;;;;;;;7.07;2.83;;;;;;;25.60;39.74;100370.19;4261959;28;21053;-67
2023/06/08 09:10:19;;;;;;;9.10;2.80;;;;;;;25.10;40.03;100376.41;4249244;28;20607;-67
2023/06/08 09:12:48;;;;;;;7.00;2.73;;;;;;;24.46;41.74;100372.53;4252924;28;20238;-67
2023/06/08 09:15:32;;;;;;;8.27;2.90;;;;;;;24.62;40.93;100368.16;4249881;28;20239;-66
2023/06/08 09:18:14;;;;;;;7.57;3.17;;;;;;;24.31;41.61;100369.41;4239089;28;20376;-66
2023/06/08 09:20:41;;;;;;;7.87;3.10;;;;;;;24.30;42.06;100376.84;4238231;28;20236;-69
2023/06/08 09:23:20;;;;;;;8.67;2.80;;;;;;;24.36;41.29;100363.97;4259421;28;21845;-65
2023/06/08 09:25:47;;;;;;;9.63;3.30;;;;;;;24.11;42.47;100359.50;4250468;28;20385;-67
2023/06/08 09:28:18;;;;;;;8.97;3.20;;;;;;;24.18;42.24;100360.22;4239032;28;20285;-70
2023/06/08 09:30:48;;;;;;;6.83;2.87;;;;;;;23.95;42.24;100361.06;4244551;28;20306;-68
2023/06/08 09:33:24;;;;;;;5.67;2.77;;;;;;;23.86;42.65;100354.16;4260354;28;22062;-67
2023/06/08 09:35:57;;;;;;;11.37;3.07;;;;;;;24.44;41.41;100354.44;4245668;28;20352;-68
2023/06/08 09:38:28;;;;;;;7.73;2.80;;;;;;;24.66;41.93;100355.53;4247779;28;20237;-66
2023/06/08 09:41:17;;;;;;;3.70;2.33;;;;;;;24.47;41.06;100360.34;4246696;28;20990;-67
2023/06/08 09:43:45;;;;;;;9.90;3.43;;;;;;;24.25;41.58;100362.88;4241601;28;20375;-67
2023/06/08 09:46:15;;;;;;;8.80;3.13;;;;;;;24.56;41.39;100357.22;4243564;28;20231;-67
2023/06/08 09:48:53;;;;;;;7.77;2.57;;;;;;;25.04;40.84;100352.47;4232769;28;20238;-66
2023/06/08 09:51:22;;;;;;;4.83;2.83;;;;;;;25.30;40.05;100353.81;4248653;28;20306;-67
2023/06/08 09:53:52;;;;;;;3.60;2.40;;;;;;;25.13;39.05;100345.41;4233565;28;21190;-67
2023/06/08 09:56:22;;;;;;;8.13;2.70;;;;;;;24.66;39.70;100344.47;4229725;28;20449;-67
2023/06/08 09:58:52;;;;;;;9.30;2.80;;;;;;;24.60;40.20;100350.94;4243156;28;21936;-66
2023/06/08 10:01:27;;;;;;;5.87;2.40;;;;;;;24.55;40.70;100342.53;4262486;28;21201;-66
2023/06/08 10:03:57;;;;;;;5.63;2.90;;;;;;;24.44;40.41;100341.47;4247675;28;20270;-68
2023/06/08 10:06:29;;;;;;;6.00;2.80;;;;;;;24.56;40.27;100337.84;4225153;28;20231;-67
2023/06/08 10:08:57;;;;;;;9.00;2.90;;;;;;;24.61;39.50;100333.25;4230844;28;20665;-67
2023/06/08 10:11:25;;;;;;;7.63;3.17;;;;;;;24.80;39.59;100339.50;4241795;28;20227;-68
2023/06/08 10:13:52;;;;;;;8.53;2.93;;;;;;;25.09;39.36;100339.53;4229191;28;20293;-67
2023/06/08 10:16:20;;;;;;;5.97;2.90;;;;;;;25.12;39.64;100330.75;4236300;28;21630;-68
2023/06/08 10:18:47;;;;;;;8.00;3.10;;;;;;;25.27;40.41;100323.81;4247690;28;20351;-66
2023/06/08 10:21:13;;;;;;;5.77;2.73;;;;;;;25.36;38.97;100325.09;4246510;28;20234;-68
2023/06/08 10:23:40;;;;;;;5.50;3.07;;;;;;;25.35;39.23;100319.78;4238305;28;20629;-69
2023/06/08 10:26:07;;;;;;;10.57;2.70;;;;;;;25.54;38.56;100320.44;4217584;28;22808;-66
2023/06/08 10:28:34;;;;;;;6.47;2.80;;;;;;;25.83;38.07;100321.22;4248702;28;20241;-68
2023/06/08 10:31:30;;;;;;;3.93;2.67;;;;;;;25.94;38.10;100320.28;4244898;28;21528;-68
2023/06/08 10:33:58;;;;;;;7.00;3.10;;;;;;;25.77;37.96;100317.50;4246925;28;20233;-71
2023/06/08 10:36:36;;;;;;;5.73;2.57;;;;;;;25.37;38.92;100298.22;4235046;28;20230;-66
2023/06/08 10:39:12;;;;;;;8.30;2.57;;;;;;;25.68;39.25;100304.31;4251135;28;20226;-70
2023/06/08 10:41:52;;;;;;;7.30;2.60;;;;;;;25.74;38.55;100311.63;4243083;28;21536;-67
2023/06/08 10:44:26;;;;;;;5.73;2.90;;;;;;;26.08;37.97;100306.94;4244642;28;20284;-67
2023/06/08 10:47:06;;;;;;;5.78;2.95;;;;;;;26.33;37.29;100305.66;4255638;28;20229;-66
2023/06/08 10:49:38;;;;;;;7.32;3.22;;;;;;;26.37;37.34;100308.75;4245590;28;20383;-68
2023/06/08 10:52:10;;;;;;;7.40;3.22;;;;;;;26.04;37.02;100305.75;4253609;28;20272;-71
2023/06/08 10:54:51;;;;;;;6.63;2.83;;;;;;;26.08;36.31;100303.34;4226059;28;20281;-68
2023/06/08 10:57:34;;;;;;;7.70;2.70;;;;;;;26.06;37.09;100291.63;4249968;28;20237;-66
2023/06/08 11:00:01;;;;;;;6.87;3.00;;;;;;;26.02;36.96;100307.09;4233927;28;22091;-65
2023/06/08 11:02:32;;;;;;;7.07;2.80;;;;;;;26.25;37.06;100300.53;4233502;28;20675;-67
2023/06/08 11:04:59;;;;;;;6.93;2.97;;;;;;;26.10;37.34;100298.34;4245046;28;20225;-66
2023/06/08 11:07:26;;;;;;;4.70;2.67;;;;;;;26.37;36.43;100297.66;4245445;28;22947;-66
2023/06/08 11:09:53;;;;;;;5.85;2.92;;;;;;;26.48;36.27;100288.34;4250430;28;20242;-65
2023/06/08 11:12:19;;;;;;;6.75;3.00;;;;;;;26.52;36.50;100288.66;4243279;28;20230;-67
2023/06/08 11:14:46;;;;;;;10.87;3.17;;;;;;;26.49;36.65;100280.88;4251195;28;21774;-66
2023/06/08 11:17:12;;;;;;;7.22;2.95;;;;;;;26.26;36.89;100294.72;4248028;28;20619;-67
2023/06/08 11:19:39;;;;;;;6.97;2.90;;;;;;;26.76;36.14;100285.66;4252105;28;20222;-68
2023/06/08 11:22:06;;;;;;;9.30;2.67;;;;;;;27.15;35.47;100285.56;4254975;28;23324;-69
2023/06/08 11:24:32;;;;;;;4.10;2.67;;;;;;;27.32;34.33;100285.44;4234831;28;21517;-68
2023/06/08 11:26:59;;;;;;;5.18;2.65;;;;;;;26.70;35.24;100282.81;4242808;28;21735;-68
2023/06/08 11:29:30;;;;;;;6.20;3.00;;;;;;;27.01;35.01;100280.41;4247565;28;20238;-68